Norfolk Naval Air Station, Virginia
Current Conditions -  °F | °C
As of 11:59 AM on Thursday 27 Nov 2014 (Local Time) from KNGU Reporting Station
Light Rain Light Rain  
Wind Chill: 44°   Ceiling: 3300
Heat Index: 44°   Visibility: 7mi
Dew Point: 39°   Wind: 3mph
Humidity: 82%   Direction: 290°WNW
Pressure: 30.04"   Gusts: NA
Location:  36.9343°N, 76.284°W
Report Text: KNGU 271659Z AUTO 29003KT 7SM -RA FEW007 OVC033 07/04 A3004 RMK AO2 SLP172 P0001 T00670039
Loading
Personal Weather Stations






























Interactive Weather Map New forecast layout! Learn more

10-Day Weather Forecast

Advertisements
Track Severe Weather on mobile